Time;durP1;ratioP1;P1;durP2;ratioP2;P2;SDS_P1;SDS_P2;PMS_P1;PMS_P2;Temp;Humidity;BMP_temperature;BMP_pressure;BME280_temperature;BME280_humidity;BME280_pressure;Samples;Min_cycle;Max_cycle;Signal;HPM_P1;HPM_P2
2023/05/22 00:00:12;;;;;;;20.53;16.57;;;18.40;99.90;;;;;;5087844;28;20968;-75
2023/05/22 00:02:41;;;;;;;19.10;16.33;;;18.40;99.90;;;;;;5078547;28;20477;-75
2023/05/22 00:05:09;;;;;;;19.63;16.73;;;18.40;99.90;;;;;;5079900;28;21497;-77
2023/05/22 00:07:35;;;;;;;19.83;17.35;;;18.40;99.90;;;;;;5087785;28;20402;-77
2023/05/22 00:10:01;;;;;;;18.15;16.05;;;18.40;99.90;;;;;;5087125;28;20393;-77
2023/05/22 00:12:26;;;;;;;18.00;16.10;;;18.40;99.90;;;;;;5087657;28;20398;-77
2023/05/22 00:14:52;;;;;;;19.92;16.63;;;18.40;99.90;;;;;;5069349;28;20402;-77
2023/05/22 00:17:19;;;;;;;18.30;15.90;;;18.40;99.90;;;;;;5087427;28;20417;-77
2023/05/22 00:19:45;;;;;;;20.00;16.43;;;18.40;99.90;;;;;;5086192;28;20406;-75
2023/05/22 00:22:10;;;;;;;17.88;16.00;;;18.40;99.90;;;;;;5069152;28;20448;-75
2023/05/22 00:24:37;;;;;;;19.17;16.05;;;18.40;99.90;;;;;;5087720;28;20398;-75
2023/05/22 00:27:03;;;;;;;18.52;16.10;;;18.40;99.90;;;;;;5087493;28;20402;-75
2023/05/22 00:29:28;;;;;;;18.30;16.00;;;18.40;99.90;;;;;;5087417;28;20482;-75
2023/05/22 00:31:54;;;;;;;19.57;16.63;;;18.40;99.90;;;;;;5085724;28;20827;-75
2023/05/22 00:34:20;;;;;;;18.27;16.07;;;18.40;99.90;;;;;;5086604;28;20410;-75
2023/05/22 00:36:45;;;;;;;18.88;16.60;;;18.40;99.90;;;;;;5087353;28;20488;-75
2023/05/22 00:39:11;;;;;;;17.50;15.60;;;18.40;99.90;;;;;;5091179;28;20424;-75
2023/05/22 00:41:37;;;;;;;19.60;16.38;;;18.40;99.90;;;;;;5072875;28;20493;-77
2023/05/22 00:44:03;;;;;;;19.10;15.98;;;18.40;99.90;;;;;;5089840;28;21193;-77
2023/05/22 00:46:29;;;;;;;17.80;15.63;;;18.40;99.90;;;;;;5091320;28;20406;-78
2023/05/22 00:48:55;;;;;;;18.00;16.08;;;18.40;99.90;;;;;;5090516;28;20418;-77
2023/05/22 00:51:21;;;;;;;17.55;15.68;;;18.40;99.90;;;;;;5083803;28;20955;-77
2023/05/22 00:53:48;;;;;;;17.27;15.27;;;18.40;99.90;;;;;;5090896;28;20846;-77
2023/05/22 00:56:14;;;;;;;16.97;15.13;;;18.40;99.90;;;;;;5089706;28;20398;-77
2023/05/22 00:58:41;;;;;;;17.38;15.45;;;18.40;99.90;;;;;;5089885;28;20429;-77
2023/05/22 01:01:08;;;;;;;18.40;15.35;;;18.40;99.90;;;;;;5084228;28;20401;-77
2023/05/22 01:03:43;;;;;;;16.65;14.77;;;18.40;99.90;;;;;;5089655;28;20432;-77
2023/05/22 01:06:13;;;;;;;18.15;15.30;;;18.40;99.90;;;;;;5090348;28;20421;-77
2023/05/22 01:08:40;;;;;;;17.23;14.97;;;18.40;99.90;;;;;;5090474;28;20504;-77
2023/05/22 01:11:30;;;;;;;17.08;15.27;;;18.40;99.90;;;;;;5090208;28;20402;-77
2023/05/22 01:14:02;;;;;;;16.85;15.05;;;18.40;99.90;;;;;;5089036;28;20453;-77
2023/05/22 01:16:45;;;;;;;18.25;14.90;;;18.40;99.90;;;;;;5085715;28;20413;-77
2023/05/22 01:19:17;;;;;;;17.13;14.88;;;18.40;99.90;;;;;;5071950;28;20430;-75
2023/05/22 01:21:56;;;;;;;16.65;14.95;;;18.40;99.90;;;;;;5088990;28;20424;-75
2023/05/22 01:24:50;;;;;;;16.27;14.57;;;18.40;99.90;;;;;;5090349;28;20386;-75
2023/05/22 01:27:28;;;;;;;16.67;14.85;;;18.40;99.90;;;;;;5090284;28;20763;-75
2023/05/22 01:30:13;;;;;;;16.57;14.83;;;18.40;99.90;;;;;;5090215;28;21060;-75
2023/05/22 01:32:41;;;;;;;15.32;13.73;;;18.40;99.90;;;;;;5089141;28;20421;-75
2023/05/22 01:35:10;;;;;;;16.80;14.50;;;18.40;99.90;;;;;;5081750;28;20411;-75
2023/05/22 01:37:37;;;;;;;17.05;14.70;;;18.40;99.90;;;;;;5090376;28;20904;-75
2023/05/22 01:40:05;;;;;;;18.55;15.52;;;18.40;99.90;;;;;;5089642;28;20919;-75
2023/05/22 01:42:31;;;;;;;16.65;14.50;;;18.40;99.90;;;;;;5090052;28;20397;-75
2023/05/22 01:44:57;;;;;;;17.45;14.65;;;18.40;99.90;;;;;;5089680;28;20398;-75
2023/05/22 01:47:22;;;;;;;17.60;15.02;;;18.30;99.90;;;;;;5071476;28;20406;-75
2023/05/22 01:49:48;;;;;;;18.45;15.35;;;18.30;99.90;;;;;;5089389;28;20464;-75
2023/05/22 01:52:31;;;;;;;17.37;14.80;;;18.30;99.90;;;;;;5089783;28;20901;-75
2023/05/22 01:55:04;;;;;;;16.90;14.98;;;18.30;99.90;;;;;;5089388;28;20402;-75
2023/05/22 01:57:37;;;;;;;16.98;15.10;;;18.30;99.90;;;;;;5089411;28;20833;-75
2023/05/22 02:00:14;;;;;;;16.75;14.95;;;18.30;99.90;;;;;;5088591;28;20497;-75
2023/05/22 02:02:44;;;;;;;17.73;14.80;;;18.20;99.90;;;;;;5089751;28;20406;-75
2023/05/22 02:05:11;;;;;;;17.05;15.00;;;18.20;99.90;;;;;;5082964;28;20895;-75
2023/05/22 02:07:39;;;;;;;19.45;15.52;;;18.20;99.90;;;;;;5089578;28;20523;-75
2023/05/22 02:10:07;;;;;;;18.60;15.48;;;18.20;99.90;;;;;;5088580;28;20394;-75
2023/05/22 02:12:33;;;;;;;18.33;15.80;;;18.20;99.90;;;;;;5089011;28;20447;-75
2023/05/22 02:14:59;;;;;;;20.03;16.73;;;18.10;99.90;;;;;;5088997;28;20547;-75
2023/05/22 02:17:25;;;;;;;19.13;16.08;;;18.10;99.90;;;;;;5087604;28;21184;-75
2023/05/22 02:19:51;;;;;;;18.63;16.58;;;18.20;99.90;;;;;;5087632;28;20414;-75
2023/05/22 02:22:16;;;;;;;20.07;17.40;;;18.10;99.90;;;;;;5087619;28;20900;-76
2023/05/22 02:24:45;;;;;;;20.83;18.42;;;18.10;99.90;;;;;;5087702;28;20421;-75
2023/05/22 02:27:11;;;;;;;21.95;18.63;;;18.00;99.90;;;;;;5082063;28;20420;-75
2023/05/22 02:29:37;;;;;;;20.50;18.30;;;18.10;99.90;;;;;;5086006;28;20425;-75
2023/05/22 02:32:03;;;;;;;20.47;18.27;;;18.00;99.90;;;;;;5087490;28;20798;-75
2023/05/22 02:34:30;;;;;;;21.67;18.83;;;17.90;99.90;;;;;;5070772;28;20406;-75
2023/05/22 02:37:02;;;;;;;20.70;18.27;;;17.90;99.90;;;;;;5087190;28;20420;-75
2023/05/22 02:39:28;;;;;;;20.85;17.90;;;17.90;99.90;;;;;;5088253;28;20433;-75
2023/05/22 02:41:54;;;;;;;21.23;18.48;;;17.90;99.90;;;;;;5087867;28;20390;-75
2023/05/22 02:44:20;;;;;;;21.20;18.38;;;17.90;99.90;;;;;;5087141;28;20414;-75
2023/05/22 02:46:46;;;;;;;22.33;18.07;;;17.80;99.90;;;;;;5088506;28;20398;-75
2023/05/22 02:49:12;;;;;;;19.65;17.55;;;17.80;99.90;;;;;;5088291;28;20768;-75
2023/05/22 02:51:38;;;;;;;20.17;17.92;;;17.80;99.90;;;;;;5088253;28;20405;-75
2023/05/22 02:54:03;;;;;;;22.05;18.40;;;17.80;99.90;;;;;;5086836;28;20402;-75
2023/05/22 02:56:29;;;;;;;22.37;18.13;;;17.80;99.90;;;;;;5088574;28;20394;-75
2023/05/22 02:58:56;;;;;;;20.75;18.55;;;17.70;99.90;;;;;;5087856;28;20769;-75
2023/05/22 03:01:21;;;;;;;20.58;18.40;;;17.70;99.90;;;;;;5088021;28;20401;-75
2023/05/22 03:03:47;;;;;;;22.50;19.38;;;17.70;99.90;;;;;;5087411;28;20405;-75
2023/05/22 03:06:14;;;;;;;22.63;20.13;;;17.70;99.90;;;;;;5087480;28;20487;-77
2023/05/22 03:08:42;;;;;;;21.17;18.98;;;17.60;99.90;;;;;;5087417;28;20928;-77
2023/05/22 03:11:08;;;;;;;23.50;19.98;;;17.60;99.90;;;;;;5087391;28;20883;-77
2023/05/22 03:13:34;;;;;;;23.63;20.35;;;17.60;99.90;;;;;;5086381;28;20406;-77
2023/05/22 03:16:00;;;;;;;21.27;19.03;;;17.50;99.90;;;;;;5086304;28;20397;-77
2023/05/22 03:18:25;;;;;;;22.77;19.58;;;17.50;99.90;;;;;;5088298;28;20414;-77
2023/05/22 03:20:51;;;;;;;22.30;19.53;;;17.50;99.90;;;;;;5087111;28;20410;-77
2023/05/22 03:23:19;;;;;;;23.02;19.52;;;17.40;99.90;;;;;;5086923;28;20818;-77
2023/05/22 03:25:45;;;;;;;22.90;20.50;;;17.40;99.90;;;;;;5086521;28;20451;-77
2023/05/22 03:28:11;;;;;;;22.83;20.20;;;17.40;99.90;;;;;;5086385;28;20822;-77
2023/05/22 03:30:36;;;;;;;22.20;19.80;;;17.40;99.90;;;;;;5086500;28;20406;-77
2023/05/22 03:33:02;;;;;;;23.40;20.90;;;17.30;99.90;;;;;;5086775;28;20413;-78
2023/05/22 03:35:27;;;;;;;23.63;20.33;;;17.30;99.90;;;;;;5079629;28;20928;-77
2023/05/22 03:37:53;;;;;;;23.33;20.20;;;17.30;99.90;;;;;;5086359;28;20421;-77
2023/05/22 03:40:19;;;;;;;27.67;22.35;;;17.20;99.90;;;;;;5086643;28;20767;-77
2023/05/22 03:42:44;;;;;;;26.13;21.67;;;17.10;99.90;;;;;;5086668;28;20822;-77
2023/05/22 03:45:10;;;;;;;28.83;22.30;;;17.10;99.90;;;;;;5086241;28;20453;-77
2023/05/22 03:47:36;;;;;;;28.05;22.85;;;17.00;99.90;;;;;;5087949;28;20749;-77
2023/05/22 03:50:01;;;;;;;28.13;22.40;;;17.00;99.90;;;;;;5087465;28;20745;-77
2023/05/22 03:52:27;;;;;;;27.17;23.25;;;16.90;99.90;;;;;;5070278;28;20453;-77
2023/05/22 03:54:53;;;;;;;29.83;23.60;;;16.80;99.90;;;;;;5086112;28;20413;-77
2023/05/22 03:57:19;;;;;;;33.17;23.40;;;16.80;99.90;;;;;;5086654;28;20484;-77
2023/05/22 03:59:45;;;;;;;28.00;23.37;;;16.80;99.90;;;;;;5069706;28;20864;-77
2023/05/22 04:02:11;;;;;;;29.52;23.52;;;16.70;99.90;;;;;;5069114;28;20473;-77
2023/05/22 04:04:37;;;;;;;29.45;23.35;;;16.70;99.90;;;;;;5087764;28;20409;-77
2023/05/22 04:07:07;;;;;;;33.70;24.50;;;16.70;99.90;;;;;;5087469;28;20421;-77
2023/05/22 04:09:35;;;;;;;28.75;22.75;;;16.70;99.90;;;;;;5082913;28;20492;-77
2023/05/22 04:12:01;;;;;;;29.77;23.42;;;16.70;99.90;;;;;;5088240;28;20410;-75
2023/05/22 04:14:27;;;;;;;30.17;23.10;;;16.60;99.90;;;;;;5092134;28;20677;-75
2023/05/22 04:16:53;;;;;;;25.77;22.13;;;16.60;99.90;;;;;;5092123;28;20406;-75
2023/05/22 04:19:19;;;;;;;27.63;21.93;;;16.60;99.90;;;;;;5091331;28;20430;-75
2023/05/22 04:21:46;;;;;;;25.48;22.05;;;16.60;99.90;;;;;;5073463;28;20398;-75
2023/05/22 04:24:12;;;;;;;28.33;21.80;;;16.70;99.90;;;;;;5089785;28;20402;-75
2023/05/22 04:26:38;;;;;;;27.83;21.83;;;16.60;99.90;;;;;;5090471;28;20394;-75
2023/05/22 04:29:09;;;;;;;25.93;20.90;;;16.70;99.90;;;;;;5090181;28;20772;-75
2023/05/22 04:31:35;;;;;;;24.92;20.27;;;16.70;99.90;;;;;;5089110;28;20929;-75
2023/05/22 04:34:01;;;;;;;28.20;20.42;;;16.70;99.90;;;;;;5090717;28;20408;-75
2023/05/22 04:36:27;;;;;;;27.95;20.38;;;16.70;99.90;;;;;;5065549;28;20410;-75
2023/05/22 04:38:54;;;;;;;24.65;20.65;;;16.70;99.90;;;;;;5086249;28;20901;-75
2023/05/22 04:41:21;;;;;;;22.73;19.30;;;16.80;99.90;;;;;;5091692;28;20394;-75
2023/05/22 04:43:47;;;;;;;22.70;18.83;;;16.80;99.90;;;;;;5091278;28;20393;-75
2023/05/22 04:46:16;;;;;;;24.63;18.15;;;16.80;99.90;;;;;;5091123;28;20437;-75
2023/05/22 04:48:42;;;;;;;21.85;17.35;;;16.80;99.90;;;;;;5089400;28;20424;-75
2023/05/22 04:51:08;;;;;;;20.88;17.48;;;16.80;99.90;;;;;;5090844;28;20971;-75
2023/05/22 04:53:34;;;;;;;21.77;17.70;;;16.80;99.90;;;;;;5089926;28;20402;-75
2023/05/22 04:56:00;;;;;;;21.35;16.42;;;16.80;99.90;;;;;;5091381;28;20427;-74
2023/05/22 04:58:26;;;;;;;19.83;16.83;;;16.80;99.90;;;;;;5090588;28;20792;-75
2023/05/22 05:00:52;;;;;;;21.00;16.83;;;16.80;99.90;;;;;;5089443;28;20771;-75
2023/05/22 05:03:19;;;;;;;17.80;15.43;;;16.80;99.90;;;;;;5091217;28;20843;-75
2023/05/22 05:05:44;;;;;;;18.50;15.70;;;16.90;99.90;;;;;;5091064;28;20402;-75
2023/05/22 05:08:10;;;;;;;18.33;15.13;;;16.80;99.90;;;;;;5090730;28;20972;-75
2023/05/22 05:10:36;;;;;;;19.65;15.35;;;16.90;99.90;;;;;;5089417;28;20452;-75
2023/05/22 05:13:02;;;;;;;20.85;16.08;;;16.90;99.90;;;;;;5088938;28;20401;-75
2023/05/22 05:15:28;;;;;;;20.42;15.40;;;16.90;99.90;;;;;;5089487;28;20459;-75
2023/05/22 05:17:54;;;;;;;19.35;15.13;;;16.90;99.90;;;;;;5090211;28;20434;-75
2023/05/22 05:20:20;;;;;;;17.50;15.38;;;16.90;99.90;;;;;;5090912;28;20416;-72
2023/05/22 05:22:46;;;;;;;19.33;15.18;;;17.00;99.90;;;;;;5089780;28;20465;-73
2023/05/22 05:25:12;;;;;;;19.27;15.27;;;16.90;99.90;;;;;;5090700;28;20402;-73
2023/05/22 05:27:38;;;;;;;19.02;15.18;;;16.90;99.90;;;;;;5089691;28;20414;-74
2023/05/22 05:30:04;;;;;;;18.87;14.60;;;16.90;99.90;;;;;;5095530;28;20410;-76
2023/05/22 05:32:29;;;;;;;19.17;15.13;;;17.00;99.90;;;;;;5089709;28;20908;-76
2023/05/22 05:34:55;;;;;;;19.63;14.38;;;16.90;99.90;;;;;;5089267;28;20406;-76
2023/05/22 05:37:22;;;;;;;16.40;14.27;;;17.00;99.90;;;;;;5089997;28;20406;-76
2023/05/22 05:39:48;;;;;;;19.95;14.48;;;17.00;99.90;;;;;;5090232;28;20395;-76
2023/05/22 05:42:13;;;;;;;17.50;14.03;;;17.00;99.90;;;;;;5088554;28;20760;-76
2023/05/22 05:44:39;;;;;;;21.55;14.00;;;17.10;99.90;;;;;;5090387;28;20405;-76
2023/05/22 05:47:05;;;;;;;18.17;13.70;;;17.10;99.90;;;;;;5089449;28;20481;-76
2023/05/22 05:49:30;;;;;;;17.00;13.25;;;17.10;99.90;;;;;;5082976;28;20470;-76
2023/05/22 05:51:56;;;;;;;18.20;13.00;;;17.20;99.90;;;;;;5089529;28;20662;-76
2023/05/22 05:54:24;;;;;;;16.70;12.65;;;17.30;99.90;;;;;;5089950;28;20443;-76
2023/05/22 05:56:49;;;;;;;14.83;12.43;;;17.30;99.90;;;;;;5088436;28;20406;-76
2023/05/22 05:59:15;;;;;;;15.25;12.00;;;17.40;99.90;;;;;;5089603;28;21165;-76
2023/05/22 06:01:46;;;;;;;15.80;12.27;;;17.40;99.90;;;;;;5089639;28;20407;-76
2023/05/22 06:04:14;;;;;;;14.73;10.90;;;17.50;99.90;;;;;;5071270;28;20488;-76
2023/05/22 06:06:41;;;;;;;15.07;11.15;;;17.50;99.90;;;;;;5089010;28;20431;-77
2023/05/22 06:09:08;;;;;;;14.77;10.90;;;17.50;99.90;;;;;;5089728;28;20477;-76
2023/05/22 06:11:34;;;;;;;13.10;10.90;;;17.60;99.90;;;;;;5089608;28;20401;-76
2023/05/22 06:14:01;;;;;;;12.73;10.53;;;17.60;99.90;;;;;;5087758;28;20414;-76
2023/05/22 06:16:27;;;;;;;14.15;11.13;;;17.60;99.90;;;;;;5087829;28;20405;-76
2023/05/22 06:18:55;;;;;;;15.35;10.65;;;17.60;99.90;;;;;;5089349;28;20484;-76
2023/05/22 06:21:21;;;;;;;13.25;10.02;;;17.60;99.90;;;;;;5088981;28;20406;-77
2023/05/22 06:23:48;;;;;;;12.88;10.63;;;17.60;99.90;;;;;;5089187;28;20402;-76
2023/05/22 06:26:14;;;;;;;16.27;11.20;;;17.60;99.90;;;;;;5087346;28;20406;-77
2023/05/22 06:28:40;;;;;;;14.55;10.65;;;17.70;99.90;;;;;;5088431;28;20513;-76
2023/05/22 06:31:08;;;;;;;14.27;10.63;;;17.60;99.90;;;;;;5089007;28;20825;-77
2023/05/22 06:33:33;;;;;;;14.00;10.63;;;17.70;99.90;;;;;;5088532;28;20485;-76
2023/05/22 06:35:59;;;;;;;14.40;10.35;;;17.70;99.90;;;;;;5088169;28;20506;-76
2023/05/22 06:38:25;;;;;;;16.33;10.70;;;17.60;99.90;;;;;;5088902;28;20421;-76
2023/05/22 06:40:51;;;;;;;14.88;10.27;;;17.60;99.90;;;;;;5088830;28;20401;-76
2023/05/22 06:43:17;;;;;;;15.57;11.10;;;17.60;99.90;;;;;;5089073;28;20461;-77
2023/05/22 06:45:42;;;;;;;16.52;11.07;;;17.60;99.90;;;;;;5088365;28;20402;-76
2023/05/22 06:48:08;;;;;;;18.85;11.48;;;17.60;99.90;;;;;;5088247;28;20908;-76
2023/05/22 06:50:34;;;;;;;18.20;10.07;;;17.70;99.90;;;;;;5088792;28;20398;-77
2023/05/22 06:52:59;;;;;;;19.30;9.88;;;17.60;99.90;;;;;;5088219;28;20406;-76
2023/05/22 06:55:25;;;;;;;15.77;8.63;;;17.60;99.90;;;;;;5087890;28;20413;-76
2023/05/22 06:57:51;;;;;;;16.38;8.27;;;17.60;99.90;;;;;;5088231;28;20831;-76
2023/05/22 07:00:17;;;;;;;19.58;8.43;;;17.60;99.90;;;;;;5088172;28;20446;-77
2023/05/22 07:02:42;;;;;;;19.42;8.60;;;17.50;99.90;;;;;;5087472;28;20405;-77
2023/05/22 07:05:08;;;;;;;17.00;8.90;;;17.50;99.90;;;;;;5086453;28;21348;-76
2023/05/22 07:07:34;;;;;;;20.92;8.75;;;17.40;99.90;;;;;;5069474;28;20402;-76
2023/05/22 07:09:59;;;;;;;16.90;8.67;;;17.40;99.90;;;;;;5088041;28;20455;-76
2023/05/22 07:12:26;;;;;;;21.85;8.25;;;17.30;99.90;;;;;;5086672;28;20402;-76
2023/05/22 07:14:53;;;;;;;20.98;8.32;;;17.20;99.90;;;;;;5087622;28;20398;-76
2023/05/22 07:17:20;;;;;;;19.73;8.55;;;17.20;99.90;;;;;;5088325;28;20413;-76
2023/05/22 07:19:47;;;;;;;19.75;9.05;;;17.10;99.90;;;;;;5087619;28;20405;-76
2023/05/22 07:22:13;;;;;;;21.43;8.80;;;17.10;99.90;;;;;;5088007;28;20417;-76
2023/05/22 07:24:39;;;;;;;22.77;9.70;;;17.10;99.90;;;;;;5087651;28;20390;-76
2023/05/22 07:27:05;;;;;;;29.42;9.88;;;17.00;99.90;;;;;;5069463;28;20420;-76
2023/05/22 07:29:30;;;;;;;26.35;9.43;;;17.00;99.90;;;;;;5088046;28;20497;-77
2023/05/22 07:31:56;;;;;;;23.90;9.67;;;17.00;99.90;;;;;;5082396;28;20501;-76
2023/05/22 07:34:22;;;;;;;23.85;10.23;;;16.90;99.90;;;;;;5086625;28;20752;-76
2023/05/22 07:36:48;;;;;;;25.57;10.20;;;16.90;99.90;;;;;;5086435;28;20912;-76
2023/05/22 07:39:13;;;;;;;25.90;10.05;;;16.80;99.90;;;;;;5087613;28;20430;-75
2023/05/22 07:41:40;;;;;;;25.40;10.97;;;16.80;99.90;;;;;;5086061;28;20401;-76
2023/05/22 07:44:06;;;;;;;23.00;9.93;;;16.70;99.90;;;;;;5087325;28;20398;-76
2023/05/22 07:46:34;;;;;;;27.00;10.43;;;16.70;99.90;;;;;;5068923;28;20485;-76
2023/05/22 07:48:59;;;;;;;26.52;10.57;;;16.70;99.90;;;;;;5087455;28;20406;-76
2023/05/22 07:51:25;;;;;;;25.40;10.43;;;16.60;99.90;;;;;;5085942;28;20763;-76
2023/05/22 07:53:52;;;;;;;21.80;10.17;;;16.70;99.90;;;;;;5079520;28;20394;-76
2023/05/22 07:56:17;;;;;;;28.10;10.75;;;16.70;99.90;;;;;;5085926;28;20447;-76
2023/05/22 07:58:46;;;;;;;25.03;10.40;;;16.70;99.90;;;;;;5078716;28;20433;-76
2023/05/22 08:01:14;;;;;;;21.45;10.23;;;16.70;99.90;;;;;;5087597;28;20455;-76
2023/05/22 08:03:40;;;;;;;25.90;11.00;;;16.70;99.90;;;;;;5069226;28;20927;-76
2023/05/22 08:06:06;;;;;;;24.38;10.15;;;16.60;99.90;;;;;;5086961;28;20437;-76
2023/05/22 08:08:32;;;;;;;26.83;10.93;;;16.60;99.90;;;;;;5086134;28;20768;-76
2023/05/22 08:10:58;;;;;;;27.77;10.60;;;16.60;99.90;;;;;;5087271;28;20401;-76
2023/05/22 08:13:23;;;;;;;28.80;10.97;;;16.60;99.90;;;;;;5087832;28;20405;-77
2023/05/22 08:15:49;;;;;;;26.90;10.80;;;16.60;99.90;;;;;;5085733;28;20409;-76
2023/05/22 08:18:15;;;;;;;25.43;11.03;;;16.70;99.90;;;;;;5087216;28;20913;-77
2023/05/22 08:20:40;;;;;;;26.67;11.45;;;16.70;99.90;;;;;;5087675;28;20402;-76
2023/05/22 08:23:06;;;;;;;25.60;11.97;;;16.70;99.90;;;;;;5087585;28;20389;-77
2023/05/22 08:25:32;;;;;;;26.13;11.93;;;16.70;99.90;;;;;;5085920;28;20403;-76
2023/05/22 08:27:57;;;;;;;26.33;11.80;;;16.70;99.90;;;;;;5085836;28;20760;-76
2023/05/22 08:30:23;;;;;;;29.48;11.77;;;16.80;99.90;;;;;;5087666;28;20398;-77
2023/05/22 08:32:49;;;;;;;31.47;11.37;;;16.80;99.90;;;;;;5087359;28;20551;-76
2023/05/22 08:35:15;;;;;;;26.83;11.48;;;16.90;99.90;;;;;;5086229;28;20466;-76
2023/05/22 08:37:40;;;;;;;31.90;11.90;;;16.90;99.90;;;;;;5085545;28;20442;-77
2023/05/22 08:40:13;;;;;;;26.73;10.93;;;17.00;99.90;;;;;;5085961;28;20429;-77
2023/05/22 08:42:39;;;;;;;21.08;10.32;;;17.10;99.90;;;;;;5087221;28;20406;-76
2023/05/22 08:45:05;;;;;;;30.20;11.07;;;17.10;99.90;;;;;;5086724;28;20402;-76
2023/05/22 08:47:34;;;;;;;24.80;10.47;;;17.20;99.90;;;;;;5085652;28;20444;-76
2023/05/22 08:50:00;;;;;;;23.83;10.93;;;17.10;99.90;;;;;;5087135;28;20926;-76
2023/05/22 08:52:35;;;;;;;22.63;10.97;;;17.10;99.90;;;;;;5079549;28;20403;-76
2023/05/22 08:55:04;;;;;;;26.33;10.93;;;17.20;99.90;;;;;;5086431;28;20485;-76
2023/05/22 08:57:31;;;;;;;20.10;10.68;;;17.20;99.90;;;;;;5069698;28;20410;-76
2023/05/22 08:59:57;;;;;;;26.02;10.93;;;17.20;99.90;;;;;;5089276;28;20895;-76
2023/05/22 09:02:23;;;;;;;25.02;11.02;;;17.20;99.90;;;;;;5089182;28;20402;-77
2023/05/22 09:04:48;;;;;;;23.70;10.97;;;17.20;99.90;;;;;;5090442;28;20406;-76
2023/05/22 09:07:14;;;;;;;27.20;11.73;;;17.20;99.90;;;;;;5090874;28;20428;-76
2023/05/22 09:09:40;;;;;;;26.30;11.38;;;17.10;99.90;;;;;;5089164;28;20402;-77
2023/05/22 09:12:08;;;;;;;28.03;11.53;;;17.10;99.90;;;;;;5090577;28;20414;-77
2023/05/22 09:14:41;;;;;;;26.27;11.35;;;17.00;99.90;;;;;;5090006;28;20398;-76
2023/05/22 09:17:09;;;;;;;24.02;11.23;;;16.90;99.90;;;;;;5089145;28;20426;-77
2023/05/22 09:19:35;;;;;;;23.77;10.88;;;16.90;99.90;;;;;;5084035;28;20426;-77
2023/05/22 09:22:05;;;;;;;27.92;12.00;;;16.90;99.90;;;;;;5090215;28;20402;-78
2023/05/22 09:24:37;;;;;;;25.30;11.52;;;16.90;99.90;;;;;;5082830;28;20763;-77
2023/05/22 09:27:05;;;;;;;26.35;11.43;;;16.90;99.90;;;;;;5088714;28;20417;-77
2023/05/22 09:29:31;;;;;;;31.50;11.90;;;16.80;99.90;;;;;;5089045;28;20463;-77
2023/05/22 09:31:58;;;;;;;30.70;12.30;;;16.90;99.90;;;;;;5090165;28;20983;-77
2023/05/22 09:34:28;;;;;;;28.83;11.85;;;16.90;99.90;;;;;;5088762;28;20421;-76
2023/05/22 09:37:02;;;;;;;33.22;12.57;;;16.90;99.90;;;;;;5089911;28;20402;-78
2023/05/22 09:39:42;;;;;;;30.20;12.32;;;17.00;99.90;;;;;;5084304;28;20424;-78
2023/05/22 09:42:13;;;;;;;34.08;12.85;;;17.00;99.90;;;;;;5090086;28;20444;-78
2023/05/22 09:44:41;;;;;;;26.40;12.43;;;17.00;99.90;;;;;;5089882;28;20394;-78
2023/05/22 09:47:08;;;;;;;31.00;13.10;;;17.00;99.90;;;;;;5088514;28;20458;-78
2023/05/22 09:49:42;;;;;;;32.05;13.55;;;17.10;99.90;;;;;;5089869;28;20414;-78
2023/05/22 09:52:11;;;;;;;31.00;13.32;;;17.00;99.90;;;;;;5070755;28;23387;-78
2023/05/22 09:54:48;;;;;;;32.47;13.57;;;17.00;99.90;;;;;;5090071;28;20489;-77
2023/05/22 09:57:19;;;;;;;26.57;13.40;;;17.00;99.90;;;;;;5088689;28;20406;-77
2023/05/22 09:59:53;;;;;;;27.13;13.13;;;17.00;99.90;;;;;;5088900;28;20430;-77
2023/05/22 10:02:22;;;;;;;30.35;13.15;;;17.00;99.90;;;;;;5089363;28;20982;-77
2023/05/22 10:04:51;;;;;;;28.13;13.00;;;17.00;99.90;;;;;;5088941;28;20394;-77
2023/05/22 10:07:42;;;;;;;32.10;13.60;;;17.00;99.90;;;;;;5089631;28;20394;-78
2023/05/22 10:10:11;;;;;;;32.15;13.88;;;17.00;99.90;;;;;;5089122;28;20394;-76
2023/05/22 10:12:43;;;;;;;25.40;13.87;;;17.10;99.90;;;;;;5088258;28;20416;-76
2023/05/22 10:15:12;;;;;;;28.45;13.48;;;17.10;99.90;;;;;;5064617;28;20463;-76
2023/05/22 10:17:39;;;;;;;27.33;13.90;;;17.20;99.90;;;;;;5087659;28;20943;-76
2023/05/22 10:20:07;;;;;;;22.38;13.30;;;17.30;99.90;;;;;;5082765;28;20493;-77
2023/05/22 10:22:37;;;;;;;26.27;14.18;;;17.30;99.90;;;;;;5087316;28;20410;-76
2023/05/22 10:25:04;;;;;;;20.23;13.27;;;17.30;99.90;;;;;;5086462;28;20414;-76
2023/05/22 10:27:30;;;;;;;22.17;13.77;;;17.50;99.90;;;;;;5087289;28;20414;-77
2023/05/22 10:30:12;;;;;;;20.65;14.43;;;17.60;99.90;;;;;;5069978;28;20434;-77
2023/05/22 10:32:44;;;;;;;23.55;14.00;;;17.70;99.90;;;;;;5087955;28;20434;-76
2023/05/22 10:35:37;;;;;;;20.20;14.05;;;18.00;99.90;;;;;;5088671;28;20398;-76
2023/05/22 10:38:14;;;;;;;17.13;13.13;;;18.20;99.90;;;;;;5083175;28;20433;-77
2023/05/22 10:40:43;;;;;;;21.92;13.38;;;18.40;99.90;;;;;;5069933;28;20414;-77
2023/05/22 10:43:09;;;;;;;20.20;13.57;;;18.60;99.90;;;;;;5086785;28;20908;-77
2023/05/22 10:45:35;;;;;;;18.77;12.85;;;18.70;99.90;;;;;;5069590;28;20413;-77
2023/05/22 10:48:10;;;;;;;16.95;13.23;;;18.90;99.90;;;;;;5086130;28;21146;-77
2023/05/22 10:50:36;;;;;;;16.83;12.63;;;18.90;99.90;;;;;;5086666;28;20431;-77
2023/05/22 10:53:19;;;;;;;18.08;12.93;;;19.00;99.90;;;;;;5087406;28;20406;-77
2023/05/22 10:55:53;;;;;;;15.32;12.52;;;19.10;99.90;;;;;;5063060;28;20494;-77
2023/05/22 10:58:27;;;;;;;17.07;13.40;;;19.10;99.90;;;;;;5086085;28;20434;-77
2023/05/22 11:01:14;;;;;;;17.23;12.48;;;19.20;99.90;;;;;;5087810;28;20949;-77
2023/05/22 11:04:11;;;;;;;20.75;13.10;;;19.20;99.90;;;;;;5086588;28;20415;-77
2023/05/22 11:06:42;;;;;;;19.67;13.13;;;19.30;99.90;;;;;;5083587;28;20414;-77
2023/05/22 11:09:20;;;;;;;17.15;13.43;;;19.30;99.90;;;;;;5086397;28;20414;-77
2023/05/22 11:11:46;;;;;;;15.87;12.50;;;19.30;99.90;;;;;;5087492;28;20904;-77
2023/05/22 11:14:15;;;;;;;16.60;13.10;;;19.30;99.90;;;;;;5085894;28;20509;-77
2023/05/22 11:16:41;;;;;;;17.90;13.25;;;19.30;99.90;;;;;;5090094;28;20406;-76
2023/05/22 11:19:08;;;;;;;16.38;13.57;;;19.40;99.90;;;;;;5087353;28;20433;-78
2023/05/22 11:21:46;;;;;;;18.58;13.55;;;19.40;99.90;;;;;;5088949;28;20839;-78
2023/05/22 11:24:14;;;;;;;18.00;14.30;;;19.50;99.90;;;;;;5086114;28;21167;-76
2023/05/22 11:26:43;;;;;;;17.23;13.00;;;19.50;99.90;;;;;;5090555;28;20816;-76
2023/05/22 11:29:09;;;;;;;16.43;13.53;;;19.60;99.90;;;;;;5090207;28;20504;-76
2023/05/22 11:31:36;;;;;;;18.95;14.15;;;19.70;99.90;;;;;;5087005;28;20988;-76
2023/05/22 11:34:02;;;;;;;16.30;14.02;;;19.80;99.90;;;;;;5077040;28;20495;-76
2023/05/22 11:36:28;;;;;;;17.45;13.75;;;19.90;99.90;;;;;;5078241;28;20410;-76
2023/05/22 11:38:59;;;;;;;15.00;12.98;;;20.00;99.90;;;;;;5079824;28;20464;-76
2023/05/22 11:41:33;;;;;;;16.65;13.45;;;20.10;99.90;;;;;;5084785;28;20438;-76
2023/05/22 11:43:59;;;;;;;16.63;13.25;;;20.20;99.90;;;;;;5083983;28;20431;-77
2023/05/22 11:46:26;;;;;;;14.48;12.98;;;20.40;99.90;;;;;;5078963;28;20998;-77
2023/05/22 11:48:52;;;;;;;15.53;13.53;;;20.60;99.90;;;;;;5083228;28;20406;-76
2023/05/22 11:51:20;;;;;;;18.13;13.80;;;20.90;99.90;;;;;;5085565;28;20406;-77
2023/05/22 11:53:46;;;;;;;15.25;13.30;;;21.00;99.90;;;;;;5087756;28;20398;-79
2023/05/22 11:56:12;;;;;;;15.07;13.18;;;21.10;99.90;;;;;;5086861;28;20462;-76
2023/05/22 11:58:38;;;;;;;15.70;12.60;;;21.30;99.90;;;;;;5089816;28;20798;-77
2023/05/22 12:01:04;;;;;;;14.82;13.20;;;21.60;99.90;;;;;;5076684;28;20806;-76
2023/05/22 12:03:31;;;;;;;13.77;12.32;;;22.00;99.90;;;;;;5089662;28;20419;-76
2023/05/22 12:05:57;;;;;;;14.18;12.52;;;22.30;99.90;;;;;;5081167;28;20412;-76
2023/05/22 12:08:23;;;;;;;;;;;22.60;99.90;;;;;;5089088;28;20090;-76
2023/05/22 12:10:49;;;;;;;;;;;22.80;99.90;;;;;;5094045;28;19924;-77
2023/05/22 12:13:25;;;;;;;;;;;23.00;99.90;;;;;;5071350;28;19924;-76
2023/05/22 12:15:56;;;;;;;;;;;23.20;99.90;;;;;;5093546;28;19978;-76
2023/05/22 12:18:22;;;;;;;;;;;23.50;99.90;;;;;;5089695;28;20359;-76
2023/05/22 12:20:50;;;;;;;;;;;23.80;99.90;;;;;;5098360;28;20006;-76
2023/05/22 12:23:23;;;;;;;14.20;11.63;;;24.00;99.90;;;;;;5088966;28;20314;-76
2023/05/22 12:26:07;;;;;;;15.57;12.38;;;24.10;99.90;;;;;;5085823;28;20497;-76
2023/05/22 12:28:33;;;;;;;13.95;12.45;;;24.30;99.90;;;;;;5086082;28;20402;-76
2023/05/22 12:30:59;;;;;;;14.77;12.90;;;24.40;99.90;;;;;;5087615;28;20400;-76
2023/05/22 12:33:27;;;;;;;;;;;24.70;99.90;;;;;;5090392;28;20501;-76